CheckWX is a tool to help pilots better visualize weather data.  It is not intended as a substitute for an official pre-flight weather briefing.

07:34:45 UTC

KDTS METAR
Destin Executive Airport
Destin, Florida, USA
Current

2 hours ago

KDTS 310553Z AUTO 19004KT 10SM FEW018 24/19 A2992 RMK AO2 SLP130 T02390194 10250 20233 402780206 58025
Observed
Mar-31 @ 05:53 UTC
Wind
  • 190° at 4 KTS
Visibility
10 SM
Flight Rules
VFR
Cloud Levels
  • Few at 1,800' AGL
Temperature
24°C / 75°F
Dewpoint
19°C / 66°F
Humidity
74%
Altimeter
29.92" Hg
Pressure
1013.22 hPa
Previous

3 hours ago

KDTS 310453Z AUTO 18003KT 10SM SCT018 24/19 A2994 RMK AO2 SLP139 T02390194
Observed
Mar-31 @ 04:53 UTC
Wind
  • 180° at 3 KTS
Visibility
10 SM
Flight Rules
VFR
Cloud Levels
  • Scattered at 1,800' AGL
Temperature
24°C / 75°F
Dewpoint
19°C / 66°F
Humidity
74%
Altimeter
29.94" Hg
Pressure
1013.92 hPa
Previous

3 hours ago

KDTS 310408Z AUTO 16005KT 10SM SCT018 SCT023 BKN032 24/20 A2996 RMK AO2 T02390200
Observed
Mar-31 @ 04:08 UTC
Wind
  • 160° at 5 KTS
Visibility
10 SM
Flight Rules
VFR
Cloud Levels
  • Scattered at 1,800' AGL
  • Scattered at 2,300' AGL
  • Broken at 3,200' AGL
Temperature
24°C / 75°F
Dewpoint
20°C / 68°F
Humidity
78%
Altimeter
29.96" Hg
Pressure
1014.52 hPa